sensor_id;sensor_type;location;lat;lon;timestamp;temperature;humidity
13808;DHT22;40769;51.512;5.494;2022-11-30T00:00:37;11.60;99.90
13808;DHT22;40769;51.512;5.494;2022-11-30T00:03:03;11.70;99.90
13808;DHT22;40769;51.512;5.494;2022-11-30T00:05:29;11.70;99.90
13808;DHT22;40769;51.512;5.494;2022-11-30T00:07:55;11.70;99.90
13808;DHT22;40769;51.512;5.494;2022-11-30T00:10:21;11.70;99.90
13808;DHT22;40769;51.512;5.494;2022-11-30T00:12:47;11.70;99.90
13808;DHT22;40769;51.512;5.494;2022-11-30T00:15:14;11.70;99.90
13808;DHT22;40769;51.512;5.494;2022-11-30T00:17:44;11.80;99.90
13808;DHT22;40769;51.512;5.494;2022-11-30T00:20:10;11.70;99.90
13808;DHT22;40769;51.512;5.494;2022-11-30T00:22:36;11.80;99.90
13808;DHT22;40769;51.512;5.494;2022-11-30T00:25:02;11.80;99.90
13808;DHT22;40769;51.512;5.494;2022-11-30T00:27:30;11.80;99.90
13808;DHT22;40769;51.512;5.494;2022-11-30T00:29:56;11.80;99.90
13808;DHT22;40769;51.512;5.494;2022-11-30T00:32:22;11.90;99.90
13808;DHT22;40769;51.512;5.494;2022-11-30T00:34:47;11.90;99.90
13808;DHT22;40769;51.512;5.494;2022-11-30T00:37:13;11.80;99.90
13808;DHT22;40769;51.512;5.494;2022-11-30T00:39:39;12.10;99.90
13808;DHT22;40769;51.512;5.494;2022-11-30T00:42:05;12.00;99.90
13808;DHT22;40769;51.512;5.494;2022-11-30T00:44:30;11.80;99.90
13808;DHT22;40769;51.512;5.494;2022-11-30T00:46:56;11.80;99.90
13808;DHT22;40769;51.512;5.494;2022-11-30T00:49:21;11.80;99.90
13808;DHT22;40769;51.512;5.494;2022-11-30T00:51:47;11.70;99.90
13808;DHT22;40769;51.512;5.494;2022-11-30T00:54:13;11.70;99.90
13808;DHT22;40769;51.512;5.494;2022-11-30T00:56:38;11.60;99.90
13808;DHT22;40769;51.512;5.494;2022-11-30T00:59:04;11.60;99.90
13808;DHT22;40769;51.512;5.494;2022-11-30T01:01:29;11.70;99.90
13808;DHT22;40769;51.512;5.494;2022-11-30T01:03:56;11.50;99.90
13808;DHT22;40769;51.512;5.494;2022-11-30T01:06:21;11.50;99.90
13808;DHT22;40769;51.512;5.494;2022-11-30T01:08:47;11.50;99.90
13808;DHT22;40769;51.512;5.494;2022-11-30T01:11:21;11.50;99.90
13808;DHT22;40769;51.512;5.494;2022-11-30T01:13:47;11.50;99.90
13808;DHT22;40769;51.512;5.494;2022-11-30T01:16:15;11.50;99.90
13808;DHT22;40769;51.512;5.494;2022-11-30T01:18:41;11.70;99.90
13808;DHT22;40769;51.512;5.494;2022-11-30T01:21:09;11.50;99.90
13808;DHT22;40769;51.512;5.494;2022-11-30T01:23:35;11.50;99.90
13808;DHT22;40769;51.512;5.494;2022-11-30T01:26:01;11.50;99.90
13808;DHT22;40769;51.512;5.494;2022-11-30T01:28:27;11.50;99.90
13808;DHT22;40769;51.512;5.494;2022-11-30T01:31:06;11.70;99.90
13808;DHT22;40769;51.512;5.494;2022-11-30T01:33:33;11.50;99.90
13808;DHT22;40769;51.512;5.494;2022-11-30T01:36:19;11.50;99.90
13808;DHT22;40769;51.512;5.494;2022-11-30T01:38:53;11.60;99.90
13808;DHT22;40769;51.512;5.494;2022-11-30T01:41:25;11.60;99.90
13808;DHT22;40769;51.512;5.494;2022-11-30T01:43:57;11.60;99.90
13808;DHT22;40769;51.512;5.494;2022-11-30T01:46:28;11.60;99.90
13808;DHT22;40769;51.512;5.494;2022-11-30T01:49:16;11.70;99.90
13808;DHT22;40769;51.512;5.494;2022-11-30T01:51:44;11.70;99.90
13808;DHT22;40769;51.512;5.494;2022-11-30T01:54:13;11.90;99.90
13808;DHT22;40769;51.512;5.494;2022-11-30T01:56:43;11.70;99.90
13808;DHT22;40769;51.512;5.494;2022-11-30T01:59:10;11.80;99.90
13808;DHT22;40769;51.512;5.494;2022-11-30T02:01:36;11.80;99.90
13808;DHT22;40769;51.512;5.494;2022-11-30T02:04:18;11.80;99.90
13808;DHT22;40769;51.512;5.494;2022-11-30T02:06:46;11.90;99.90
13808;DHT22;40769;51.512;5.494;2022-11-30T02:09:13;11.90;99.90
13808;DHT22;40769;51.512;5.494;2022-11-30T02:11:39;11.90;99.90
13808;DHT22;40769;51.512;5.494;2022-11-30T02:14:23;12.00;99.90
13808;DHT22;40769;51.512;5.494;2022-11-30T02:25:07;12.00;99.90
13808;DHT22;40769;51.512;5.494;2022-11-30T02:30:23;12.00;99.90
13808;DHT22;40769;51.512;5.494;2022-11-30T02:33:09;11.90;99.90
13808;DHT22;40769;51.512;5.494;2022-11-30T02:35:39;12.00;99.90
13808;DHT22;40769;51.512;5.494;2022-11-30T02:38:06;12.00;99.90
13808;DHT22;40769;51.512;5.494;2022-11-30T02:40:32;12.10;99.90
13808;DHT22;40769;51.512;5.494;2022-11-30T02:42:59;12.00;99.90
13808;DHT22;40769;51.512;5.494;2022-11-30T02:45:37;12.00;99.90
13808;DHT22;40769;51.512;5.494;2022-11-30T02:48:11;12.00;99.90
13808;DHT22;40769;51.512;5.494;2022-11-30T02:50:53;12.00;99.90
13808;DHT22;40769;51.512;5.494;2022-11-30T02:53:20;12.00;99.90
13808;DHT22;40769;51.512;5.494;2022-11-30T02:55:45;12.00;99.90
13808;DHT22;40769;51.512;5.494;2022-11-30T02:58:13;12.00;99.90
13808;DHT22;40769;51.512;5.494;2022-11-30T03:00:39;12.00;99.90
13808;DHT22;40769;51.512;5.494;2022-11-30T03:03:04;12.00;99.90
13808;DHT22;40769;51.512;5.494;2022-11-30T03:05:30;12.00;99.90
13808;DHT22;40769;51.512;5.494;2022-11-30T03:07:56;12.00;99.90
13808;DHT22;40769;51.512;5.494;2022-11-30T03:10:21;12.00;99.90
13808;DHT22;40769;51.512;5.494;2022-11-30T03:12:47;12.10;99.90
13808;DHT22;40769;51.512;5.494;2022-11-30T03:15:15;12.00;99.90
13808;DHT22;40769;51.512;5.494;2022-11-30T03:17:40;12.00;99.90
13808;DHT22;40769;51.512;5.494;2022-11-30T03:20:07;12.10;99.90
13808;DHT22;40769;51.512;5.494;2022-11-30T03:22:32;12.10;99.90
13808;DHT22;40769;51.512;5.494;2022-11-30T03:24:58;12.20;99.90
13808;DHT22;40769;51.512;5.494;2022-11-30T03:27:23;12.10;99.90
13808;DHT22;40769;51.512;5.494;2022-11-30T03:29:49;12.10;99.90
13808;DHT22;40769;51.512;5.494;2022-11-30T03:32:15;12.10;99.90
13808;DHT22;40769;51.512;5.494;2022-11-30T03:34:40;12.10;99.90
13808;DHT22;40769;51.512;5.494;2022-11-30T03:37:06;12.10;99.90
13808;DHT22;40769;51.512;5.494;2022-11-30T03:39:31;12.10;99.90
13808;DHT22;40769;51.512;5.494;2022-11-30T03:41:57;12.10;99.90
13808;DHT22;40769;51.512;5.494;2022-11-30T03:44:22;12.10;99.90
13808;DHT22;40769;51.512;5.494;2022-11-30T03:46:48;12.00;99.90
13808;DHT22;40769;51.512;5.494;2022-11-30T03:49:14;12.10;99.90
13808;DHT22;40769;51.512;5.494;2022-11-30T03:51:39;12.50;99.90
13808;DHT22;40769;51.512;5.494;2022-11-30T03:54:05;12.10;99.90
13808;DHT22;40769;51.512;5.494;2022-11-30T03:56:30;12.10;99.90
13808;DHT22;40769;51.512;5.494;2022-11-30T03:58:56;12.00;99.90
13808;DHT22;40769;51.512;5.494;2022-11-30T04:01:22;12.00;99.90
13808;DHT22;40769;51.512;5.494;2022-11-30T04:03:49;12.00;99.90
13808;DHT22;40769;51.512;5.494;2022-11-30T04:06:16;11.90;99.90
13808;DHT22;40769;51.512;5.494;2022-11-30T04:08:42;11.80;99.90
13808;DHT22;40769;51.512;5.494;2022-11-30T04:11:09;11.80;99.90
13808;DHT22;40769;51.512;5.494;2022-11-30T04:13:36;11.80;99.90
13808;DHT22;40769;51.512;5.494;2022-11-30T04:16:02;11.80;99.90
13808;DHT22;40769;51.512;5.494;2022-11-30T04:18:29;11.80;99.90
13808;DHT22;40769;51.512;5.494;2022-11-30T04:20:56;11.90;99.90
13808;DHT22;40769;51.512;5.494;2022-11-30T04:23:23;11.80;99.90
13808;DHT22;40769;51.512;5.494;2022-11-30T04:25:50;11.90;99.90
13808;DHT22;40769;51.512;5.494;2022-11-30T04:28:17;11.80;99.90
13808;DHT22;40769;51.512;5.494;2022-11-30T04:30:43;11.80;99.90
13808;DHT22;40769;51.512;5.494;2022-11-30T04:33:11;11.80;99.90
13808;DHT22;40769;51.512;5.494;2022-11-30T04:35:44;11.70;99.90
13808;DHT22;40769;51.512;5.494;2022-11-30T04:38:10;11.70;99.90
13808;DHT22;40769;51.512;5.494;2022-11-30T04:40:42;11.70;99.90
13808;DHT22;40769;51.512;5.494;2022-11-30T04:43:09;11.90;99.90
13808;DHT22;40769;51.512;5.494;2022-11-30T04:45:34;11.60;99.90
13808;DHT22;40769;51.512;5.494;2022-11-30T04:48:00;11.60;99.90
13808;DHT22;40769;51.512;5.494;2022-11-30T04:50:26;11.60;99.90
13808;DHT22;40769;51.512;5.494;2022-11-30T04:52:52;11.60;99.90
13808;DHT22;40769;51.512;5.494;2022-11-30T04:55:17;11.60;99.90
13808;DHT22;40769;51.512;5.494;2022-11-30T04:57:44;11.60;99.90
13808;DHT22;40769;51.512;5.494;2022-11-30T05:00:12;11.60;99.90
13808;DHT22;40769;51.512;5.494;2022-11-30T05:02:37;11.70;99.90
13808;DHT22;40769;51.512;5.494;2022-11-30T05:05:03;11.60;99.90
13808;DHT22;40769;51.512;5.494;2022-11-30T05:07:29;11.60;99.90
13808;DHT22;40769;51.512;5.494;2022-11-30T05:09:54;11.90;99.90
13808;DHT22;40769;51.512;5.494;2022-11-30T05:12:20;11.60;99.90
13808;DHT22;40769;51.512;5.494;2022-11-30T05:14:45;11.60;99.90
13808;DHT22;40769;51.512;5.494;2022-11-30T05:17:11;11.60;99.90
13808;DHT22;40769;51.512;5.494;2022-11-30T05:19:37;11.60;99.90
13808;DHT22;40769;51.512;5.494;2022-11-30T05:22:02;11.80;99.90
13808;DHT22;40769;51.512;5.494;2022-11-30T05:24:28;11.60;99.90
13808;DHT22;40769;51.512;5.494;2022-11-30T05:26:53;11.50;99.90
13808;DHT22;40769;51.512;5.494;2022-11-30T05:29:19;11.60;99.90
13808;DHT22;40769;51.512;5.494;2022-11-30T05:31:44;11.50;99.90
13808;DHT22;40769;51.512;5.494;2022-11-30T05:34:10;11.50;99.90
13808;DHT22;40769;51.512;5.494;2022-11-30T05:36:36;11.40;99.90
13808;DHT22;40769;51.512;5.494;2022-11-30T05:39:02;11.40;99.90
13808;DHT22;40769;51.512;5.494;2022-11-30T05:41:27;11.30;99.90
13808;DHT22;40769;51.512;5.494;2022-11-30T05:43:53;11.30;99.90
13808;DHT22;40769;51.512;5.494;2022-11-30T05:46:18;11.20;99.90
13808;DHT22;40769;51.512;5.494;2022-11-30T05:48:44;11.20;99.90
13808;DHT22;40769;51.512;5.494;2022-11-30T05:51:14;11.30;99.90
13808;DHT22;40769;51.512;5.494;2022-11-30T05:53:42;11.10;99.90
13808;DHT22;40769;51.512;5.494;2022-11-30T05:56:10;11.10;99.90
13808;DHT22;40769;51.512;5.494;2022-11-30T05:58:37;11.30;99.90
13808;DHT22;40769;51.512;5.494;2022-11-30T06:01:03;11.10;99.90
13808;DHT22;40769;51.512;5.494;2022-11-30T06:03:30;11.00;99.90
13808;DHT22;40769;51.512;5.494;2022-11-30T06:05:56;11.00;99.90
13808;DHT22;40769;51.512;5.494;2022-11-30T06:08:22;11.10;99.90
13808;DHT22;40769;51.512;5.494;2022-11-30T06:10:48;11.20;99.90
13808;DHT22;40769;51.512;5.494;2022-11-30T06:13:14;11.10;99.90
13808;DHT22;40769;51.512;5.494;2022-11-30T06:15:40;11.10;99.90
13808;DHT22;40769;51.512;5.494;2022-11-30T06:18:06;11.10;99.90
13808;DHT22;40769;51.512;5.494;2022-11-30T06:20:33;11.20;99.90
13808;DHT22;40769;51.512;5.494;2022-11-30T06:23:01;11.10;99.90
13808;DHT22;40769;51.512;5.494;2022-11-30T06:25:27;11.10;99.90
13808;DHT22;40769;51.512;5.494;2022-11-30T06:27:53;11.10;99.90
13808;DHT22;40769;51.512;5.494;2022-11-30T06:30:19;11.30;99.90
13808;DHT22;40769;51.512;5.494;2022-11-30T06:32:46;11.10;99.90
13808;DHT22;40769;51.512;5.494;2022-11-30T06:35:12;11.10;99.90
13808;DHT22;40769;51.512;5.494;2022-11-30T06:37:37;11.00;99.90
13808;DHT22;40769;51.512;5.494;2022-11-30T06:40:04;11.00;99.90
13808;DHT22;40769;51.512;5.494;2022-11-30T06:42:30;11.10;99.90
13808;DHT22;40769;51.512;5.494;2022-11-30T06:44:56;11.10;99.90
13808;DHT22;40769;51.512;5.494;2022-11-30T06:47:22;11.10;99.90
13808;DHT22;40769;51.512;5.494;2022-11-30T06:49:48;11.50;99.90
13808;DHT22;40769;51.512;5.494;2022-11-30T06:52:14;11.20;99.90
13808;DHT22;40769;51.512;5.494;2022-11-30T06:54:39;11.10;99.90
13808;DHT22;40769;51.512;5.494;2022-11-30T06:57:05;11.00;99.90
13808;DHT22;40769;51.512;5.494;2022-11-30T06:59:33;11.10;99.90
13808;DHT22;40769;51.512;5.494;2022-11-30T07:02:01;11.10;99.90
13808;DHT22;40769;51.512;5.494;2022-11-30T07:04:26;11.30;99.90
13808;DHT22;40769;51.512;5.494;2022-11-30T07:06:52;11.00;99.90
13808;DHT22;40769;51.512;5.494;2022-11-30T07:09:18;11.00;99.90
13808;DHT22;40769;51.512;5.494;2022-11-30T07:11:43;11.00;99.90
13808;DHT22;40769;51.512;5.494;2022-11-30T07:14:09;11.00;99.90
13808;DHT22;40769;51.512;5.494;2022-11-30T07:16:34;11.00;99.90
13808;DHT22;40769;51.512;5.494;2022-11-30T07:19:00;11.00;99.90
13808;DHT22;40769;51.512;5.494;2022-11-30T07:21:26;11.00;99.90
13808;DHT22;40769;51.512;5.494;2022-11-30T07:23:51;11.00;99.90
13808;DHT22;40769;51.512;5.494;2022-11-30T07:26:35;11.00;99.90
13808;DHT22;40769;51.512;5.494;2022-11-30T07:29:01;11.00;99.90
13808;DHT22;40769;51.512;5.494;2022-11-30T07:31:29;11.00;99.90
13808;DHT22;40769;51.512;5.494;2022-11-30T07:33:56;11.00;99.90
13808;DHT22;40769;51.512;5.494;2022-11-30T07:36:25;11.00;99.90
13808;DHT22;40769;51.512;5.494;2022-11-30T07:38:51;11.00;99.90
13808;DHT22;40769;51.512;5.494;2022-11-30T07:41:17;11.00;99.90
13808;DHT22;40769;51.512;5.494;2022-11-30T07:43:43;11.10;99.90
13808;DHT22;40769;51.512;5.494;2022-11-30T07:46:11;11.60;99.90
13808;DHT22;40769;51.512;5.494;2022-11-30T07:48:37;11.10;99.90
13808;DHT22;40769;51.512;5.494;2022-11-30T07:51:09;11.20;99.90
13808;DHT22;40769;51.512;5.494;2022-11-30T07:53:36;11.30;99.90
13808;DHT22;40769;51.512;5.494;2022-11-30T07:56:03;11.40;99.90
13808;DHT22;40769;51.512;5.494;2022-11-30T07:58:29;11.40;99.90
13808;DHT22;40769;51.512;5.494;2022-11-30T08:01:03;11.70;99.90
13808;DHT22;40769;51.512;5.494;2022-11-30T08:03:29;11.50;99.90
13808;DHT22;40769;51.512;5.494;2022-11-30T08:06:00;11.60;99.90
13808;DHT22;40769;51.512;5.494;2022-11-30T08:08:29;11.60;99.90
13808;DHT22;40769;51.512;5.494;2022-11-30T08:10:58;11.60;99.90
13808;DHT22;40769;51.512;5.494;2022-11-30T08:13:24;11.60;99.90
13808;DHT22;40769;51.512;5.494;2022-11-30T08:15:50;11.70;99.90
13808;DHT22;40769;51.512;5.494;2022-11-30T08:18:15;11.70;99.90
13808;DHT22;40769;51.512;5.494;2022-11-30T08:20:41;11.70;99.90
13808;DHT22;40769;51.512;5.494;2022-11-30T08:23:06;11.80;99.90
13808;DHT22;40769;51.512;5.494;2022-11-30T08:25:33;11.80;99.90
13808;DHT22;40769;51.512;5.494;2022-11-30T08:27:59;12.00;99.90
13808;DHT22;40769;51.512;5.494;2022-11-30T08:30:25;11.90;99.90
13808;DHT22;40769;51.512;5.494;2022-11-30T08:32:50;12.00;99.90
13808;DHT22;40769;51.512;5.494;2022-11-30T08:35:16;12.00;99.90
13808;DHT22;40769;51.512;5.494;2022-11-30T08:37:42;12.20;99.90
13808;DHT22;40769;51.512;5.494;2022-11-30T08:40:08;12.10;99.90
13808;DHT22;40769;51.512;5.494;2022-11-30T08:42:33;12.10;99.90
13808;DHT22;40769;51.512;5.494;2022-11-30T08:44:59;12.10;99.90
13808;DHT22;40769;51.512;5.494;2022-11-30T08:47:25;12.10;99.90
13808;DHT22;40769;51.512;5.494;2022-11-30T08:49:50;12.10;99.90
13808;DHT22;40769;51.512;5.494;2022-11-30T08:52:17;12.10;99.90
13808;DHT22;40769;51.512;5.494;2022-11-30T08:54:43;12.20;99.90
13808;DHT22;40769;51.512;5.494;2022-11-30T08:57:10;12.40;99.90
13808;DHT22;40769;51.512;5.494;2022-11-30T08:59:36;12.10;99.90
13808;DHT22;40769;51.512;5.494;2022-11-30T09:02:02;12.00;99.90
13808;DHT22;40769;51.512;5.494;2022-11-30T09:04:27;12.10;99.90
13808;DHT22;40769;51.512;5.494;2022-11-30T09:06:53;12.00;99.90
13808;DHT22;40769;51.512;5.494;2022-11-30T09:09:23;12.00;99.90
13808;DHT22;40769;51.512;5.494;2022-11-30T09:11:49;12.00;99.90
13808;DHT22;40769;51.512;5.494;2022-11-30T09:14:14;12.00;99.90
13808;DHT22;40769;51.512;5.494;2022-11-30T09:16:40;12.10;99.90
13808;DHT22;40769;51.512;5.494;2022-11-30T09:19:05;12.20;99.90
13808;DHT22;40769;51.512;5.494;2022-11-30T09:21:31;12.40;99.90
13808;DHT22;40769;51.512;5.494;2022-11-30T09:23:57;12.30;99.90
13808;DHT22;40769;51.512;5.494;2022-11-30T09:26:23;12.30;99.90
13808;DHT22;40769;51.512;5.494;2022-11-30T09:28:50;12.30;99.90
13808;DHT22;40769;51.512;5.494;2022-11-30T09:31:19;12.30;99.90
13808;DHT22;40769;51.512;5.494;2022-11-30T09:33:46;12.30;99.90
13808;DHT22;40769;51.512;5.494;2022-11-30T09:36:14;12.40;99.90
13808;DHT22;40769;51.512;5.494;2022-11-30T09:38:40;12.30;99.90
13808;DHT22;40769;51.512;5.494;2022-11-30T09:46:32;12.30;99.90
13808;DHT22;40769;51.512;5.494;2022-11-30T09:49:17;12.40;99.90
13808;DHT22;40769;51.512;5.494;2022-11-30T09:51:44;12.40;99.90
13808;DHT22;40769;51.512;5.494;2022-11-30T09:54:17;12.50;99.90
13808;DHT22;40769;51.512;5.494;2022-11-30T09:56:45;12.50;99.90
13808;DHT22;40769;51.512;5.494;2022-11-30T09:59:16;12.50;99.90
13808;DHT22;40769;51.512;5.494;2022-11-30T10:01:43;13.00;99.90
13808;DHT22;40769;51.512;5.494;2022-11-30T10:04:27;12.60;99.90
13808;DHT22;40769;51.512;5.494;2022-11-30T10:09:54;12.70;99.90
13808;DHT22;40769;51.512;5.494;2022-11-30T10:12:25;12.70;99.90
13808;DHT22;40769;51.512;5.494;2022-11-30T10:15:04;12.70;99.90
13808;DHT22;40769;51.512;5.494;2022-11-30T10:17:45;12.70;99.90
13808;DHT22;40769;51.512;5.494;2022-11-30T10:23:30;12.70;99.90
13808;DHT22;40769;51.512;5.494;2022-11-30T10:26:02;12.70;99.90
13808;DHT22;40769;51.512;5.494;2022-11-30T10:31:09;12.70;99.90
13808;DHT22;40769;51.512;5.494;2022-11-30T10:33:50;12.70;99.90
13808;DHT22;40769;51.512;5.494;2022-11-30T10:36:35;12.90;99.90
13808;DHT22;40769;51.512;5.494;2022-11-30T10:39:05;12.80;99.90
13808;DHT22;40769;51.512;5.494;2022-11-30T10:41:43;12.60;99.90
13808;DHT22;40769;51.512;5.494;2022-11-30T10:44:37;12.90;99.90
13808;DHT22;40769;51.512;5.494;2022-11-30T10:47:19;12.90;99.90
13808;DHT22;40769;51.512;5.494;2022-11-30T10:49:51;13.00;99.90
13808;DHT22;40769;51.512;5.494;2022-11-30T10:52:25;13.00;99.90
13808;DHT22;40769;51.512;5.494;2022-11-30T10:54:54;13.10;99.90
13808;DHT22;40769;51.512;5.494;2022-11-30T10:57:23;13.10;99.90
13808;DHT22;40769;51.512;5.494;2022-11-30T10:59:53;13.10;99.90
13808;DHT22;40769;51.512;5.494;2022-11-30T11:05:25;13.20;99.90
13808;DHT22;40769;51.512;5.494;2022-11-30T11:13:02;13.30;99.90
13808;DHT22;40769;51.512;5.494;2022-11-30T11:15:30;13.30;99.90
13808;DHT22;40769;51.512;5.494;2022-11-30T11:18:30;14.30;99.90
13808;DHT22;40769;51.512;5.494;2022-11-30T11:23:40;13.50;99.90
13808;DHT22;40769;51.512;5.494;2022-11-30T11:26:17;13.50;99.90
13808;DHT22;40769;51.512;5.494;2022-11-30T11:28:45;13.60;99.90
13808;DHT22;40769;51.512;5.494;2022-11-30T11:31:36;13.60;99.90
13808;DHT22;40769;51.512;5.494;2022-11-30T11:34:03;13.60;99.90
13808;DHT22;40769;51.512;5.494;2022-11-30T11:36:32;13.70;99.90
13808;DHT22;40769;51.512;5.494;2022-11-30T11:38:58;13.60;99.90
13808;DHT22;40769;51.512;5.494;2022-11-30T11:41:32;13.60;99.90
13808;DHT22;40769;51.512;5.494;2022-11-30T11:44:17;13.70;99.90
13808;DHT22;40769;51.512;5.494;2022-11-30T11:46:58;13.60;99.90
13808;DHT22;40769;51.512;5.494;2022-11-30T11:49:36;13.60;99.90
13808;DHT22;40769;51.512;5.494;2022-11-30T11:52:10;13.70;99.90
13808;DHT22;40769;51.512;5.494;2022-11-30T11:54:53;13.80;99.90
13808;DHT22;40769;51.512;5.494;2022-11-30T11:57:28;13.60;99.90
13808;DHT22;40769;51.512;5.494;2022-11-30T12:00:06;13.60;99.90
13808;DHT22;40769;51.512;5.494;2022-11-30T12:02:52;13.50;99.90
13808;DHT22;40769;51.512;5.494;2022-11-30T12:05:22;13.40;99.90
13808;DHT22;40769;51.512;5.494;2022-11-30T12:07:57;13.40;99.90
13808;DHT22;40769;51.512;5.494;2022-11-30T12:13:28;13.30;99.90
13808;DHT22;40769;51.512;5.494;2022-11-30T12:21:57;13.20;99.90
13808;DHT22;40769;51.512;5.494;2022-11-30T12:27:42;13.10;99.90
13808;DHT22;40769;51.512;5.494;2022-11-30T12:33:21;13.00;99.90
13808;DHT22;40769;51.512;5.494;2022-11-30T12:36:08;13.00;99.90
13808;DHT22;40769;51.512;5.494;2022-11-30T12:49:34;13.10;99.90
13808;DHT22;40769;51.512;5.494;2022-11-30T12:57:34;13.10;99.90
13808;DHT22;40769;51.512;5.494;2022-11-30T13:05:25;13.30;99.90
13808;DHT22;40769;51.512;5.494;2022-11-30T13:08:16;13.30;99.90
13808;DHT22;40769;51.512;5.494;2022-11-30T13:10:45;13.30;99.90
13808;DHT22;40769;51.512;5.494;2022-11-30T13:13:21;13.50;99.90
13808;DHT22;40769;51.512;5.494;2022-11-30T13:15:49;13.40;99.90
13808;DHT22;40769;51.512;5.494;2022-11-30T13:18:19;13.40;99.90
13808;DHT22;40769;51.512;5.494;2022-11-30T13:21:04;13.70;99.90
13808;DHT22;40769;51.512;5.494;2022-11-30T13:23:40;13.50;99.90
13808;DHT22;40769;51.512;5.494;2022-11-30T13:32:10;13.60;99.90
13808;DHT22;40769;51.512;5.494;2022-11-30T13:34:37;13.60;99.90
13808;DHT22;40769;51.512;5.494;2022-11-30T13:39:55;13.50;99.90
13808;DHT22;40769;51.512;5.494;2022-11-30T13:45:26;13.40;99.90
13808;DHT22;40769;51.512;5.494;2022-11-30T13:47:56;13.40;99.90
13808;DHT22;40769;51.512;5.494;2022-11-30T13:50:37;13.40;99.90
13808;DHT22;40769;51.512;5.494;2022-11-30T13:53:45;13.40;99.90
13808;DHT22;40769;51.512;5.494;2022-11-30T13:55:57;13.40;99.90
13808;DHT22;40769;51.512;5.494;2022-11-30T13:58:24;13.40;99.90
13808;DHT22;40769;51.512;5.494;2022-11-30T14:06:52;13.20;99.90
13808;DHT22;40769;51.512;5.494;2022-11-30T14:14:55;13.20;99.90
13808;DHT22;40769;51.512;5.494;2022-11-30T14:17:27;13.20;99.90
13808;DHT22;40769;51.512;5.494;2022-11-30T14:20:06;13.20;99.90
13808;DHT22;40769;51.512;5.494;2022-11-30T14:22:33;13.20;99.90
13808;DHT22;40769;51.512;5.494;2022-11-30T14:25:00;13.20;99.90
13808;DHT22;40769;51.512;5.494;2022-11-30T14:27:28;13.20;99.90
13808;DHT22;40769;51.512;5.494;2022-11-30T14:29:58;13.50;99.90
13808;DHT22;40769;51.512;5.494;2022-11-30T14:32:33;13.20;99.90
13808;DHT22;40769;51.512;5.494;2022-11-30T14:35:11;13.10;99.90
13808;DHT22;40769;51.512;5.494;2022-11-30T14:37:53;13.10;99.90
13808;DHT22;40769;51.512;5.494;2022-11-30T14:40:21;13.10;99.90
13808;DHT22;40769;51.512;5.494;2022-11-30T14:42:50;13.10;99.90
13808;DHT22;40769;51.512;5.494;2022-11-30T14:45:30;13.00;99.90
13808;DHT22;40769;51.512;5.494;2022-11-30T14:48:10;13.00;99.90
13808;DHT22;40769;51.512;5.494;2022-11-30T14:50:43;12.90;99.90
13808;DHT22;40769;51.512;5.494;2022-11-30T14:56:06;12.90;99.90
13808;DHT22;40769;51.512;5.494;2022-11-30T14:58:54;12.80;99.90
13808;DHT22;40769;51.512;5.494;2022-11-30T15:01:27;12.90;99.90
13808;DHT22;40769;51.512;5.494;2022-11-30T15:03:56;12.70;99.90
13808;DHT22;40769;51.512;5.494;2022-11-30T15:06:30;12.60;99.90
13808;DHT22;40769;51.512;5.494;2022-11-30T15:08:57;12.90;99.90
13808;DHT22;40769;51.512;5.494;2022-11-30T15:11:25;12.60;99.90
13808;DHT22;40769;51.512;5.494;2022-11-30T15:13:55;12.50;99.90
13808;DHT22;40769;51.512;5.494;2022-11-30T15:16:25;12.50;99.90
13808;DHT22;40769;51.512;5.494;2022-11-30T15:18:53;12.50;99.90
13808;DHT22;40769;51.512;5.494;2022-11-30T15:21:27;12.60;99.90
13808;DHT22;40769;51.512;5.494;2022-11-30T15:23:55;12.40;99.90
13808;DHT22;40769;51.512;5.494;2022-11-30T15:26:36;12.30;99.90
13808;DHT22;40769;51.512;5.494;2022-11-30T15:29:11;12.30;99.90
13808;DHT22;40769;51.512;5.494;2022-11-30T15:31:42;12.20;99.90
13808;DHT22;40769;51.512;5.494;2022-11-30T15:34:43;12.20;99.90
13808;DHT22;40769;51.512;5.494;2022-11-30T15:37:04;12.10;99.90
13808;DHT22;40769;51.512;5.494;2022-11-30T15:39:30;12.10;99.90
13808;DHT22;40769;51.512;5.494;2022-11-30T15:42:00;12.00;99.90
13808;DHT22;40769;51.512;5.494;2022-11-30T15:44:39;12.00;99.90
13808;DHT22;40769;51.512;5.494;2022-11-30T15:47:23;12.00;99.90
13808;DHT22;40769;51.512;5.494;2022-11-30T15:49:53;12.00;99.90
13808;DHT22;40769;51.512;5.494;2022-11-30T15:52:25;11.90;99.90
13808;DHT22;40769;51.512;5.494;2022-11-30T15:57:18;12.00;99.90
13808;DHT22;40769;51.512;5.494;2022-11-30T16:02:33;11.90;99.90
13808;DHT22;40769;51.512;5.494;2022-11-30T16:07:34;11.90;99.90
13808;DHT22;40769;51.512;5.494;2022-11-30T16:10:15;11.90;99.90
13808;DHT22;40769;51.512;5.494;2022-11-30T16:12:42;11.90;99.90
13808;DHT22;40769;51.512;5.494;2022-11-30T16:17:46;11.90;99.90
13808;DHT22;40769;51.512;5.494;2022-11-30T16:20:13;12.00;99.90
13808;DHT22;40769;51.512;5.494;2022-11-30T16:22:41;12.00;99.90
13808;DHT22;40769;51.512;5.494;2022-11-30T16:25:16;12.30;99.90
13808;DHT22;40769;51.512;5.494;2022-11-30T16:27:42;12.00;99.90
13808;DHT22;40769;51.512;5.494;2022-11-30T16:30:13;12.00;99.90
13808;DHT22;40769;51.512;5.494;2022-11-30T16:32:38;12.00;99.90
13808;DHT22;40769;51.512;5.494;2022-11-30T16:35:22;12.00;99.90
13808;DHT22;40769;51.512;5.494;2022-11-30T16:37:49;12.00;99.90
13808;DHT22;40769;51.512;5.494;2022-11-30T16:40:17;12.10;99.90
13808;DHT22;40769;51.512;5.494;2022-11-30T16:42:43;12.10;99.90
13808;DHT22;40769;51.512;5.494;2022-11-30T16:45:34;12.10;99.90
13808;DHT22;40769;51.512;5.494;2022-11-30T16:48:00;12.20;99.90
13808;DHT22;40769;51.512;5.494;2022-11-30T16:50:25;12.20;99.90
13808;DHT22;40769;51.512;5.494;2022-11-30T16:52:51;12.20;99.90
13808;DHT22;40769;51.512;5.494;2022-11-30T16:55:19;12.20;99.90
13808;DHT22;40769;51.512;5.494;2022-11-30T16:57:45;12.20;99.90
13808;DHT22;40769;51.512;5.494;2022-11-30T17:00:13;12.10;99.90
13808;DHT22;40769;51.512;5.494;2022-11-30T17:05:33;12.10;99.90
13808;DHT22;40769;51.512;5.494;2022-11-30T17:07:59;12.00;99.90
13808;DHT22;40769;51.512;5.494;2022-11-30T17:10:25;12.00;99.90
13808;DHT22;40769;51.512;5.494;2022-11-30T17:12:50;12.10;99.90
13808;DHT22;40769;51.512;5.494;2022-11-30T17:15:19;12.00;99.90
13808;DHT22;40769;51.512;5.494;2022-11-30T17:17:45;11.90;99.90
13808;DHT22;40769;51.512;5.494;2022-11-30T17:20:12;11.90;99.90
13808;DHT22;40769;51.512;5.494;2022-11-30T17:22:38;11.90;99.90
13808;DHT22;40769;51.512;5.494;2022-11-30T17:25:06;11.90;99.90
13808;DHT22;40769;51.512;5.494;2022-11-30T17:27:33;11.80;99.90
13808;DHT22;40769;51.512;5.494;2022-11-30T17:29:59;11.80;99.90
13808;DHT22;40769;51.512;5.494;2022-11-30T17:32:24;11.80;99.90
13808;DHT22;40769;51.512;5.494;2022-11-30T17:34:50;11.80;99.90